createdAt,value
2017-09-09T00:02:08.131Z,87.63
2017-09-09T00:04:36.453Z,88.63
2017-09-09T00:07:04.794Z,88.42
2017-09-09T00:09:33.131Z,88.06
2017-09-09T00:12:01.464Z,88.64
2017-09-09T00:14:29.805Z,88.73
2017-09-09T00:16:58.280Z,89.26
2017-09-09T00:19:26.619Z,89.37
2017-09-09T00:21:54.958Z,89.79
2017-09-09T00:24:23.303Z,89.59
2017-09-09T00:26:51.708Z,89.22
2017-09-09T00:29:20.148Z,89.16
2017-09-09T00:31:48.487Z,89.62
2017-09-09T00:34:17.002Z,88.99
2017-09-09T00:36:45.355Z,89.20
2017-09-09T00:39:13.695Z,89.11
2017-09-09T00:41:42.036Z,88.93
2017-09-09T00:44:10.380Z,88.85
2017-09-09T00:46:38.769Z,89.49
2017-09-09T00:49:07.103Z,89.34
2017-09-09T00:51:35.478Z,89.23
2017-09-09T00:54:03.808Z,89.79
2017-09-09T00:56:32.163Z,89.97
2017-09-09T00:59:00.504Z,89.80
2017-09-09T01:01:28.842Z,89.73
2017-09-09T01:03:57.184Z,89.26
2017-09-09T01:06:25.522Z,89.76
2017-09-09T01:08:53.859Z,90.00
2017-09-09T01:11:22.198Z,89.75
2017-09-09T01:13:50.602Z,89.20
2017-09-09T01:16:18.934Z,89.43
2017-09-09T01:18:47.305Z,89.01
2017-09-09T01:21:15.651Z,88.88
2017-09-09T01:23:43.996Z,89.18
2017-09-09T01:26:12.331Z,88.53
2017-09-09T01:28:40.714Z,88.52
2017-09-09T01:31:09.063Z,89.51
2017-09-09T01:33:37.407Z,88.90
2017-09-09T01:36:05.778Z,88.83
2017-09-09T01:38:34.133Z,88.88
2017-09-09T01:41:02.491Z,88.84
2017-09-09T01:43:30.842Z,89.21
2017-09-09T01:45:59.179Z,89.44
2017-09-09T01:48:27.519Z,89.21
2017-09-09T01:50:55.869Z,88.42
2017-09-09T01:53:24.257Z,88.74
2017-09-09T01:55:52.599Z,88.63
2017-09-09T01:58:20.939Z,88.09
2017-09-09T02:00:49.309Z,87.81
2017-09-09T02:03:17.646Z,88.16
2017-09-09T02:05:45.992Z,88.05
2017-09-09T02:08:14.352Z,88.25
2017-09-09T02:10:42.698Z,87.57
2017-09-09T02:13:11.741Z,87.40
2017-09-09T02:15:40.075Z,88.54
2017-09-09T02:18:08.410Z,87.99
2017-09-09T02:20:36.886Z,88.40
2017-09-09T02:23:05.224Z,88.29
2017-09-09T02:25:33.565Z,88.29
2017-09-09T02:28:01.905Z,88.96
2017-09-09T02:30:30.314Z,89.40
2017-09-09T02:32:58.657Z,89.27
2017-09-09T02:35:27.010Z,89.13
2017-09-09T02:37:55.348Z,88.32
2017-09-09T02:40:23.697Z,88.82
2017-09-09T02:42:52.076Z,90.10
2017-09-09T02:45:20.439Z,88.85
2017-09-09T02:47:48.821Z,89.03
2017-09-09T02:50:17.163Z,88.81
2017-09-09T02:52:45.513Z,87.93
2017-09-09T02:55:13.876Z,88.68
2017-09-09T02:57:42.223Z,88.14
2017-09-09T03:00:10.624Z,88.42
2017-09-09T03:02:38.963Z,88.11
2017-09-09T03:05:07.731Z,88.80
2017-09-09T03:07:36.073Z,88.84
2017-09-09T03:10:04.419Z,89.00
2017-09-09T03:12:32.907Z,89.03
2017-09-09T03:15:01.251Z,89.23
2017-09-09T03:17:29.592Z,88.92
2017-09-09T03:19:57.927Z,90.24
2017-09-09T03:22:26.269Z,89.91
2017-09-09T03:24:54.612Z,89.38
2017-09-09T03:27:22.963Z,90.14
2017-09-09T03:29:51.343Z,89.05
2017-09-09T03:32:19.704Z,89.40
2017-09-09T03:34:48.047Z,88.89
2017-09-09T03:37:16.414Z,88.78
2017-09-09T03:39:44.755Z,89.08
2017-09-09T03:42:13.124Z,89.45
2017-09-09T03:44:41.470Z,89.71
2017-09-09T03:47:09.818Z,89.92
2017-09-09T03:49:38.182Z,90.12
2017-09-09T03:52:06.528Z,89.87
2017-09-09T03:54:34.880Z,89.93
2017-09-09T03:57:03.216Z,90.26
2017-09-09T03:59:31.556Z,90.41
2017-09-09T04:01:59.903Z,90.03
2017-09-09T04:04:28.253Z,89.66
2017-09-09T04:06:56.587Z,90.05
2017-09-09T04:09:24.928Z,89.73
2017-09-09T04:11:53.278Z,89.60
2017-09-09T04:14:21.610Z,89.48
2017-09-09T04:16:49.954Z,89.86
2017-09-09T04:19:18.303Z,89.94
2017-09-09T04:21:46.679Z,90.94
2017-09-09T04:24:15.015Z,90.31
2017-09-09T04:26:43.385Z,90.03
2017-09-09T04:29:11.732Z,90.44
2017-09-09T04:31:40.079Z,90.03
2017-09-09T04:34:08.418Z,89.71
2017-09-09T04:36:36.759Z,90.58
2017-09-09T04:39:05.105Z,90.29
2017-09-09T04:41:33.448Z,89.94
2017-09-09T04:44:01.911Z,89.97
2017-09-09T04:46:30.257Z,89.94
2017-09-09T04:48:58.595Z,89.13
2017-09-09T04:51:26.947Z,89.67
2017-09-09T04:53:55.287Z,89.61
2017-09-09T04:56:23.635Z,90.09
2017-09-09T04:58:51.976Z,90.35
2017-09-09T05:01:20.355Z,91.43
2017-09-09T05:03:48.703Z,91.34
2017-09-09T05:06:17.053Z,91.69
2017-09-09T05:08:45.451Z,92.03
2017-09-09T05:11:13.809Z,92.56
2017-09-09T05:13:42.310Z,92.61
2017-09-09T05:16:10.645Z,91.56
2017-09-09T05:18:38.982Z,91.69
2017-09-09T05:21:07.326Z,91.87
2017-09-09T05:23:35.708Z,90.30
2017-09-09T05:26:04.048Z,89.78
2017-09-09T05:28:32.392Z,90.01
2017-09-09T05:31:00.723Z,90.16
2017-09-09T05:33:29.075Z,90.81
2017-09-09T05:35:57.446Z,90.57
2017-09-09T05:38:25.779Z,90.08
2017-09-09T05:40:54.127Z,88.65
2017-09-09T05:43:22.467Z,89.64
2017-09-09T05:45:50.832Z,89.17
2017-09-09T05:48:19.170Z,89.66
2017-09-09T05:50:47.511Z,89.42
2017-09-09T05:53:15.891Z,89.51
2017-09-09T05:55:44.256Z,89.13
2017-09-09T05:58:12.595Z,88.93
2017-09-09T06:00:40.931Z,89.32
2017-09-09T06:03:09.562Z,90.01
2017-09-09T06:05:37.922Z,90.52
2017-09-09T06:08:06.279Z,87.97
2017-09-09T06:10:34.615Z,90.14
2017-09-09T06:13:03.307Z,89.00
2017-09-09T06:15:31.692Z,88.37
2017-09-09T06:18:00.033Z,88.75
2017-09-09T06:20:28.384Z,88.82
2017-09-09T06:22:56.725Z,88.60
2017-09-09T06:25:25.067Z,89.76
2017-09-09T06:27:53.416Z,89.15
2017-09-09T06:30:21.763Z,89.21
2017-09-09T06:32:50.108Z,88.10
2017-09-09T06:35:18.451Z,87.98
2017-09-09T06:37:46.798Z,88.13
2017-09-09T06:40:15.200Z,87.63
2017-09-09T06:42:43.534Z,87.74
2017-09-09T06:45:11.872Z,87.93
2017-09-09T06:47:40.209Z,87.19
2017-09-09T06:50:08.550Z,87.59
2017-09-09T06:52:36.891Z,88.03
2017-09-09T06:55:05.235Z,87.18
2017-09-09T06:57:33.562Z,89.01
2017-09-09T07:00:01.938Z,86.57
2017-09-09T07:02:30.279Z,86.54
2017-09-09T07:04:58.642Z,86.73
2017-09-09T07:07:26.980Z,87.21
2017-09-09T07:09:55.353Z,86.01
2017-09-09T07:12:23.699Z,86.80
2017-09-09T07:14:52.041Z,86.78
2017-09-09T07:17:20.376Z,87.25
2017-09-09T07:19:48.724Z,88.03
2017-09-09T07:22:17.084Z,88.89
2017-09-09T07:24:45.480Z,87.15
2017-09-09T07:27:13.810Z,87.22
2017-09-09T07:29:42.155Z,87.88
2017-09-09T07:32:10.494Z,87.18
2017-09-09T07:34:38.830Z,86.32
2017-09-09T07:37:07.173Z,87.38
2017-09-09T07:39:35.503Z,86.38
2017-09-09T07:42:04.358Z,86.72
2017-09-09T07:44:32.759Z,86.97
2017-09-09T07:47:01.101Z,87.06
2017-09-09T07:49:29.444Z,86.88
2017-09-09T07:51:57.790Z,85.93
2017-09-09T07:54:26.131Z,85.25
2017-09-09T07:56:54.503Z,86.52
2017-09-09T07:59:26.683Z,85.53
2017-09-09T08:01:55.029Z,85.52
2017-09-09T08:04:23.366Z,85.89
2017-09-09T08:06:51.725Z,84.96
2017-09-09T08:09:20.090Z,84.59
2017-09-09T08:11:48.434Z,84.96
2017-09-09T08:14:16.774Z,84.42
2017-09-09T08:16:45.162Z,85.01
2017-09-09T08:19:14.058Z,83.76
2017-09-09T08:21:42.448Z,82.52
2017-09-09T08:24:10.795Z,84.62
2017-09-09T08:26:39.159Z,84.68
2017-09-09T08:29:07.519Z,86.26
2017-09-09T08:31:35.895Z,86.48
2017-09-09T08:34:04.251Z,85.62
2017-09-09T08:36:32.594Z,84.91
2017-09-09T08:39:00.951Z,81.29
2017-09-09T08:41:29.320Z,81.34
2017-09-09T08:43:57.658Z,81.45
2017-09-09T08:46:25.996Z,82.43
2017-09-09T08:48:54.363Z,82.37
2017-09-09T08:51:22.727Z,83.15
2017-09-09T08:53:51.072Z,82.61
2017-09-09T08:56:19.435Z,82.31
2017-09-09T08:58:47.779Z,83.56
2017-09-09T09:01:16.138Z,81.81
2017-09-09T09:03:44.476Z,82.36
2017-09-09T09:06:12.850Z,82.80
2017-09-09T09:08:41.199Z,81.90
2017-09-09T09:11:09.539Z,82.07
2017-09-09T09:13:37.878Z,81.94
2017-09-09T09:16:07.051Z,81.73
2017-09-09T09:18:35.491Z,78.81
2017-09-09T09:21:03.858Z,80.11
2017-09-09T09:23:32.197Z,80.68
2017-09-09T09:26:00.561Z,82.95
2017-09-09T09:28:28.942Z,83.95
2017-09-09T09:30:57.318Z,80.70
2017-09-09T09:33:25.787Z,83.54
2017-09-09T09:35:54.169Z,82.56
2017-09-09T09:38:22.503Z,83.52
2017-09-09T09:40:50.842Z,82.88
2017-09-09T09:43:19.199Z,83.33
2017-09-09T09:45:47.579Z,81.34
2017-09-09T09:48:15.915Z,79.68
2017-09-09T09:50:44.263Z,77.55
2017-09-09T09:53:12.610Z,79.27
2017-09-09T09:55:40.965Z,79.01
2017-09-09T09:58:09.343Z,80.80
2017-09-09T10:00:37.688Z,80.73
2017-09-09T10:03:06.044Z,77.26
2017-09-09T10:05:34.519Z,72.19
2017-09-09T10:08:02.882Z,72.76
2017-09-09T10:10:31.252Z,73.11
2017-09-09T10:12:59.627Z,76.71
2017-09-09T10:15:27.975Z,76.15
2017-09-09T10:17:56.355Z,74.50
2017-09-09T10:20:24.689Z,72.74
2017-09-09T10:22:53.573Z,68.35
2017-09-09T10:25:27.286Z,67.74
2017-09-09T10:27:58.431Z,69.70
2017-09-09T10:30:27.527Z,70.53
2017-09-09T10:32:56.449Z,71.16
2017-09-09T10:35:25.474Z,67.39
2017-09-09T10:37:54.648Z,70.42
2017-09-09T10:40:23.367Z,69.09
2017-09-09T10:42:52.925Z,69.63
2017-09-09T10:45:21.825Z,69.96
2017-09-09T10:47:50.310Z,71.31
2017-09-09T10:50:18.738Z,71.83
2017-09-09T10:52:47.117Z,72.80
2017-09-09T10:55:15.459Z,72.84
2017-09-09T10:57:43.795Z,71.45
2017-09-09T11:00:12.137Z,70.81
2017-09-09T11:02:40.492Z,69.60
2017-09-09T11:05:08.835Z,71.87
2017-09-09T11:07:43.171Z,70.85
2017-09-09T11:10:11.502Z,70.88
2017-09-09T11:12:39.847Z,66.27
2017-09-09T11:15:08.191Z,71.15
2017-09-09T11:17:36.579Z,73.72
2017-09-09T11:20:04.915Z,74.67
2017-09-09T11:22:33.251Z,76.40
2017-09-09T11:25:01.598Z,76.00
2017-09-09T11:27:29.934Z,80.36
2017-09-09T11:29:58.279Z,78.39
2017-09-09T11:32:26.633Z,77.52
2017-09-09T11:34:54.983Z,79.90
2017-09-09T11:37:23.311Z,79.47
2017-09-09T11:39:51.707Z,81.55
2017-09-09T11:42:20.042Z,81.44
2017-09-09T11:44:48.381Z,81.24
2017-09-09T11:47:16.734Z,80.75
2017-09-09T11:49:45.063Z,82.09
2017-09-09T11:52:13.439Z,84.33
2017-09-09T11:54:41.775Z,84.94
2017-09-09T11:57:10.314Z,85.19
2017-09-09T11:59:38.655Z,86.01
2017-09-09T12:02:06.999Z,84.27
2017-09-09T12:04:35.912Z,85.11
2017-09-09T12:07:04.243Z,85.64
2017-09-09T12:09:32.597Z,86.18
2017-09-09T12:12:00.941Z,84.83
2017-09-09T12:14:29.299Z,84.35
2017-09-09T12:16:57.663Z,84.80
2017-09-09T12:19:26.003Z,85.18
2017-09-09T12:21:54.356Z,84.04
2017-09-09T12:24:22.688Z,84.96
2017-09-09T12:26:51.022Z,84.00
2017-09-09T12:29:19.395Z,84.30
2017-09-09T12:31:47.736Z,84.17
2017-09-09T12:34:16.082Z,82.32
2017-09-09T12:36:44.458Z,84.51
2017-09-09T12:39:12.840Z,82.04
2017-09-09T12:41:41.192Z,82.48
2017-09-09T12:44:09.536Z,82.02
2017-09-09T12:46:37.928Z,81.35
2017-09-09T12:49:06.272Z,81.80
2017-09-09T12:51:34.614Z,79.82
2017-09-09T12:54:03.064Z,80.28
2017-09-09T12:56:31.408Z,80.83
2017-09-09T12:58:59.753Z,80.71
2017-09-09T13:01:28.098Z,81.60
2017-09-09T13:03:56.487Z,82.43
2017-09-09T13:08:59.405Z,82.18
2017-09-09T13:11:27.751Z,80.76
2017-09-09T13:13:56.150Z,82.37
2017-09-09T13:16:24.475Z,82.75
2017-09-09T13:18:52.822Z,84.37
2017-09-09T13:21:21.288Z,85.00
2017-09-09T13:23:49.631Z,85.15
2017-09-09T13:26:17.967Z,85.21
2017-09-09T13:28:46.306Z,83.63
2017-09-09T13:31:14.646Z,82.69
2017-09-09T13:33:42.998Z,78.66
2017-09-09T13:36:11.347Z,80.99
2017-09-09T13:38:39.693Z,78.99
2017-09-09T13:41:08.036Z,79.96
2017-09-09T13:43:36.402Z,81.37
2017-09-09T13:46:04.750Z,77.54
2017-09-09T13:48:33.084Z,81.10
2017-09-09T13:51:01.420Z,81.13
2017-09-09T13:53:29.766Z,79.53
2017-09-09T13:55:58.122Z,79.38
2017-09-09T13:58:26.470Z,78.11
2017-09-09T14:00:54.803Z,78.79
2017-09-09T14:03:23.152Z,78.21
2017-09-09T14:05:51.509Z,74.93
2017-09-09T14:08:19.871Z,75.22
2017-09-09T14:10:48.253Z,77.60
2017-09-09T14:13:16.618Z,76.88
2017-09-09T14:15:44.962Z,76.23
2017-09-09T14:18:13.300Z,78.71
2017-09-09T14:20:41.636Z,78.51
2017-09-09T14:23:09.973Z,79.61
2017-09-09T14:25:38.324Z,79.79
2017-09-09T14:28:06.679Z,79.30
2017-09-09T14:30:35.023Z,78.95
2017-09-09T14:33:03.607Z,80.36
2017-09-09T14:35:31.971Z,80.95
2017-09-09T14:38:01.192Z,83.64
2017-09-09T14:40:29.522Z,83.62
2017-09-09T14:42:57.870Z,83.26
2017-09-09T14:45:26.218Z,83.23
2017-09-09T14:47:54.644Z,85.60
2017-09-09T14:50:22.999Z,84.04
2017-09-09T14:52:51.347Z,85.99
2017-09-09T14:55:19.689Z,86.71
2017-09-09T14:57:48.132Z,86.41
2017-09-09T15:00:16.500Z,86.51
2017-09-09T15:02:44.844Z,86.21
2017-09-09T15:05:13.192Z,85.85
2017-09-09T15:07:41.540Z,86.47
2017-09-09T15:10:09.886Z,85.86
2017-09-09T15:12:38.241Z,85.21
2017-09-09T15:15:06.619Z,85.45
2017-09-09T15:17:34.962Z,87.54
2017-09-09T15:20:03.318Z,87.69
2017-09-09T15:22:31.655Z,86.93
2017-09-09T15:25:00.004Z,88.89
2017-09-09T15:27:28.522Z,89.14
2017-09-09T15:29:56.863Z,87.62
2017-09-09T15:32:25.245Z,88.16
2017-09-09T15:34:53.579Z,86.42
2017-09-09T15:37:21.945Z,87.06
2017-09-09T15:39:50.784Z,87.01
2017-09-09T15:42:19.119Z,86.34
2017-09-09T15:44:47.459Z,87.93
2017-09-09T15:47:15.815Z,85.72
2017-09-09T15:49:44.164Z,88.85
2017-09-09T15:52:12.519Z,89.29
2017-09-09T15:54:40.852Z,85.48
2017-09-09T15:57:09.207Z,87.76
2017-09-09T15:59:37.555Z,85.64
2017-09-09T16:02:05.891Z,85.38
2017-09-09T16:04:34.575Z,86.00
2017-09-09T16:07:02.916Z,88.48
2017-09-09T16:09:31.269Z,85.14
2017-09-09T16:11:59.609Z,87.88
2017-09-09T16:14:27.980Z,87.95
2017-09-09T16:16:57.069Z,84.78
2017-09-09T16:19:26.690Z,84.83
2017-09-09T16:21:55.039Z,85.34
2017-09-09T16:24:23.391Z,84.68
2017-09-09T16:26:51.735Z,86.37
2017-09-09T16:29:20.085Z,84.11
2017-09-09T16:31:48.567Z,85.01
2017-09-09T16:34:16.909Z,85.97
2017-09-09T16:36:45.254Z,85.72
2017-09-09T16:39:13.586Z,85.26
2017-09-09T16:41:41.959Z,84.53
2017-09-09T16:44:10.330Z,85.19
2017-09-09T16:46:38.668Z,88.03
2017-09-09T16:49:07.012Z,85.30
2017-09-09T16:51:35.364Z,86.66
2017-09-09T16:54:03.731Z,88.07
2017-09-09T16:56:32.087Z,86.71
2017-09-09T16:59:00.421Z,84.75
2017-09-09T17:01:28.758Z,85.72
2017-09-09T17:03:57.124Z,86.25
2017-09-09T17:06:25.496Z,85.46
2017-09-09T17:08:53.819Z,87.38
2017-09-09T17:11:22.168Z,86.81
2017-09-09T17:13:50.521Z,86.45
2017-09-09T17:16:18.864Z,87.34
2017-09-09T17:18:47.212Z,87.22
2017-09-09T17:21:15.554Z,87.42
2017-09-09T17:23:43.899Z,87.17
2017-09-09T17:26:12.239Z,87.37
2017-09-09T17:28:40.579Z,86.55
2017-09-09T17:31:08.917Z,87.20
2017-09-09T17:33:37.259Z,86.06
2017-09-09T17:36:05.594Z,86.78
2017-09-09T17:38:33.982Z,88.10
2017-09-09T17:41:03.001Z,88.25
2017-09-09T17:43:31.339Z,87.49
2017-09-09T17:45:59.683Z,87.75
2017-09-09T17:48:28.022Z,87.69
2017-09-09T17:50:56.361Z,88.83
2017-09-09T17:53:24.715Z,89.93
2017-09-09T18:40:50.828Z,93.05
2017-09-09T18:43:19.172Z,93.11
2017-09-09T18:45:47.651Z,93.08
2017-09-09T18:48:15.991Z,92.94
2017-09-09T18:50:44.333Z,92.33
2017-09-09T19:32:11.745Z,93.43
2017-09-09T19:34:44.088Z,93.20
2017-09-09T19:37:12.426Z,92.77
2017-09-09T19:39:40.781Z,93.04
2017-09-09T19:42:09.124Z,92.56
2017-09-09T19:44:37.487Z,93.12
2017-09-09T19:47:05.922Z,92.72
2017-09-09T19:49:34.305Z,92.12
2017-09-09T19:52:02.626Z,92.47
2017-09-09T19:54:30.976Z,92.54
2017-09-09T19:56:59.450Z,92.86
2017-09-09T19:59:27.800Z,92.79
2017-09-09T20:01:56.127Z,92.94
2017-09-09T20:04:24.481Z,92.75
2017-09-09T20:06:52.821Z,92.62
2017-09-09T20:09:21.189Z,92.35
2017-09-09T20:11:49.523Z,92.97
2017-09-09T20:14:17.936Z,93.16
2017-09-09T20:16:46.275Z,93.16
2017-09-09T20:19:14.616Z,93.71
2017-09-09T20:21:42.961Z,93.80
2017-09-09T20:24:11.313Z,93.92
2017-09-09T20:26:39.656Z,93.82
2017-09-09T20:29:08.132Z,93.83
2017-09-09T20:31:36.472Z,93.47
2017-09-09T20:34:04.819Z,93.35
2017-09-09T20:36:33.160Z,93.01
2017-09-09T20:39:01.516Z,93.67
2017-09-09T20:41:29.895Z,93.30
2017-09-09T20:43:58.497Z,93.52
2017-09-09T20:46:26.877Z,92.87
2017-09-09T20:48:55.217Z,93.52
2017-09-09T20:51:23.873Z,92.88
2017-09-09T20:53:52.235Z,92.85
2017-09-09T20:56:20.615Z,92.67
2017-09-09T20:58:48.965Z,92.74
2017-09-09T21:01:17.392Z,92.48
2017-09-09T21:03:45.747Z,92.68
2017-09-09T21:06:14.101Z,93.34
2017-09-09T21:08:42.452Z,92.78
2017-09-09T21:11:11.273Z,92.74
2017-09-09T21:13:39.621Z,92.79
2017-09-09T21:16:07.975Z,92.79
2017-09-09T21:18:36.338Z,92.53
2017-09-09T21:21:04.700Z,92.30
2017-09-09T21:23:33.086Z,92.05
2017-09-09T21:26:01.420Z,92.45
2017-09-09T21:28:29.763Z,92.07
2017-09-09T21:30:58.147Z,92.01
2017-09-09T21:33:26.502Z,91.92
2017-09-09T21:35:54.850Z,91.24
2017-09-09T21:38:23.196Z,92.14
2017-09-09T21:40:51.533Z,91.95
2017-09-09T21:43:19.890Z,92.47
2017-09-09T21:45:48.224Z,92.21
2017-09-09T21:48:16.599Z,92.18
2017-09-09T21:50:44.940Z,91.30
2017-09-09T21:53:13.317Z,90.77
2017-09-09T21:55:41.654Z,91.26
2017-09-09T21:58:10.028Z,91.51
2017-09-09T22:00:38.390Z,92.04
2017-09-09T22:03:06.739Z,92.04
2017-09-09T22:05:35.088Z,92.58
2017-09-09T22:08:03.430Z,92.50
2017-09-09T22:10:31.774Z,93.04
2017-09-09T22:13:00.147Z,92.86
2017-09-09T22:15:28.495Z,93.29
2017-09-09T22:17:56.844Z,92.59
2017-09-09T22:20:25.225Z,92.56
2017-09-09T22:22:53.555Z,92.82
2017-09-09T22:25:21.935Z,93.17
2017-09-09T22:27:50.321Z,93.32
2017-09-09T22:30:18.779Z,93.78
2017-09-09T22:32:47.120Z,93.21
2017-09-09T22:35:15.459Z,93.67
2017-09-09T22:37:43.814Z,94.01
2017-09-09T22:40:12.179Z,93.74
2017-09-09T22:42:40.514Z,93.50
2017-09-09T22:45:08.865Z,93.53
2017-09-09T22:47:37.220Z,93.33
2017-09-09T22:50:05.563Z,93.30
2017-09-09T22:52:33.921Z,93.38
2017-09-09T22:55:02.315Z,93.85
2017-09-09T22:57:30.663Z,93.46
2017-09-09T22:59:59.006Z,93.74
2017-09-09T23:02:27.359Z,93.34
2017-09-09T23:04:55.798Z,93.96
2017-09-09T23:07:24.166Z,94.10
2017-09-09T23:09:53.255Z,94.23
2017-09-09T23:12:21.618Z,93.86
2017-09-09T23:14:49.969Z,94.04
2017-09-09T23:17:18.312Z,93.80
2017-09-09T23:19:46.669Z,93.73
2017-09-09T23:22:15.063Z,93.41
2017-09-09T23:24:43.426Z,93.85
2017-09-09T23:27:11.786Z,93.88
2017-09-09T23:29:40.163Z,93.69
2017-09-09T23:32:08.534Z,93.90
2017-09-09T23:34:36.908Z,93.92
2017-09-09T23:37:05.278Z,94.14
2017-09-09T23:39:33.663Z,94.66
2017-09-09T23:42:02.042Z,94.24
2017-09-09T23:44:30.406Z,93.96
2017-09-09T23:46:58.783Z,93.67
2017-09-09T23:49:27.136Z,93.90
2017-09-09T23:51:55.475Z,93.97
2017-09-09T23:54:23.847Z,93.32
2017-09-09T23:56:52.192Z,93.73
2017-09-09T23:59:20.580Z,94.24
